Hauptseite
METAR-TAF:

METAR-TAF

Flughäfen :

Flughafen Gabes

Gabès, Tunesien

Breite: 33-53N, Länge: 010-06E, Höhe: 4 m

Beobachtung

Neuester Wetterbericht von vor 51 Minuten, um 22:00 UTC
Wind 12 kt aus Südwest
Temperatur 12°C
Luftfeuchtigkeit 50%
Luftdruck 1025 hPa
Sichtweite 10 km oder mehr
Leicht bewölkt in der Höhe von 3000 ft

METAR: DTTG 162200Z 23012KT 9999 FEW030 12/02 Q1025 NOSIG

Zeit: 23:51 (22:51 UTC)

Prognose

Neuester Wetterbericht von vor 1 Stunde und 51 Minuten, um 21:00 UTC
Gültige Prognose vom 16 um 22 UTC bis 17 um 07 UTC
Wind 15 kt aus West/Südwest
Sichtweite 10 km oder mehr
keine Wolken unter 1500 m und keine Kumulonimbus oder Gewitterwolken

TAF: DTTG 162100Z 1622/1707 24015KT CAVOK

Wetterbeobachtungen und Prognosen von mehr als 4000 Flughäfen (METAR und TAF Bericht).

Die verfügbaren Stationen werden durch gelbe und rote Markierungen auf der Karte dargestellt.

Führen Sie die Maus auf sie, um den Namen der Station zu sehen.

Darauf klicken, um die Beobachtung von Wetterbeobachtungen und Prognosen zu sehen.

Um die Karte zu ändern : klicken Sie auf den grünen Tasten mit einem schwarzen Kreuz Zum Vergrößern, auf den grünen Button mit einem Gedankenstrich zu verkleinern, oder auf die grünen Pfeile für benachbarte Karten.


METAR-TAF: